Time;durP1;ratioP1;P1;durP2;ratioP2;P2;SDS_P1;SDS_P2;PMS_P1;PMS_P2;Temp;Humidity;BMP_temperature;BMP_pressure;BME280_temperature;BME280_humidity;BME280_pressure;Samples;Min_cycle;Max_cycle;Signal;HPM_P1;HPM_P2
2023/08/08 00:02:29;;;;;;;7.50;3.05;;;;;;;13.30;100.00;101339.94;5308264;28;20529;-69
2023/08/08 00:05:00;;;;;;;7.10;2.90;;;;;;;13.28;100.00;101341.84;5313083;28;20378;-69
2023/08/08 00:07:31;;;;;;;6.28;2.90;;;;;;;13.26;100.00;101339.28;5315172;28;20123;-69
2023/08/08 00:10:03;;;;;;;6.53;2.63;;;;;;;13.24;100.00;101335.88;5307926;28;20047;-69
2023/08/08 00:12:34;;;;;;;5.75;2.80;;;;;;;13.29;100.00;101333.69;5311928;28;20031;-69
2023/08/08 00:15:06;;;;;;;5.13;2.80;;;;;;;13.25;100.00;101340.28;5312957;28;20034;-69
2023/08/08 00:17:38;;;;;;;6.28;2.88;;;;;;;13.24;100.00;101337.72;5305067;28;20028;-69
2023/08/08 00:20:10;;;;;;;10.73;3.00;;;;;;;13.24;100.00;101343.91;5313331;28;20068;-68
2023/08/08 00:22:41;;;;;;;5.53;2.90;;;;;;;13.27;100.00;101341.00;5306285;28;20031;-69
2023/08/08 00:25:12;;;;;;;5.22;3.15;;;;;;;13.26;100.00;101336.59;5312630;28;20035;-69
2023/08/08 00:27:44;;;;;;;6.30;2.60;;;;;;;13.30;100.00;101337.25;5313222;28;20115;-69
2023/08/08 00:30:15;;;;;;;8.30;2.83;;;;;;;13.29;100.00;101346.25;5314093;28;20404;-69
2023/08/08 00:32:47;;;;;;;4.18;2.67;;;;;;;13.31;100.00;101347.84;5307394;28;20359;-69
2023/08/08 00:35:18;;;;;;;7.15;3.10;;;;;;;13.47;100.00;101341.25;5312441;28;20035;-68
2023/08/08 00:37:49;;;;;;;8.65;2.90;;;;;;;13.43;100.00;101340.66;5308520;28;20055;-68
2023/08/08 00:40:21;;;;;;;5.65;2.78;;;;;;;13.33;100.00;101326.28;5319064;28;20400;-68
2023/08/08 00:42:52;;;;;;;4.82;2.88;;;;;;;13.37;100.00;101327.75;5320820;28;20032;-68
2023/08/08 00:45:24;;;;;;;8.02;2.88;;;;;;;13.46;100.00;101321.66;5301728;28;20039;-69
2023/08/08 00:47:55;;;;;;;6.93;3.10;;;;;;;13.44;100.00;101320.06;5314218;28;20033;-69
2023/08/08 00:50:27;;;;;;;6.65;2.92;;;;;;;13.43;100.00;101310.31;5314942;28;20375;-68
2023/08/08 00:52:58;;;;;;;4.88;2.85;;;;;;;13.47;100.00;101322.50;5316027;28;20038;-70
2023/08/08 00:55:30;;;;;;;5.00;2.70;;;;;;;13.48;100.00;101321.50;5315115;28;20032;-68
2023/08/08 00:58:02;;;;;;;7.20;3.10;;;;;;;13.52;100.00;101310.41;5306824;27;20084;-69
2023/08/08 01:00:33;;;;;;;6.78;2.95;;;;;;;13.49;100.00;101310.66;5313480;28;20041;-68
2023/08/08 01:03:05;;;;;;;4.30;2.70;;;;;;;13.48;100.00;101317.00;5315837;28;20051;-69
2023/08/08 01:05:46;;;;;;;7.18;2.90;;;;;;;13.50;100.00;101315.06;5319327;28;20032;-69
2023/08/08 01:08:26;;;;;;;5.70;3.00;;;;;;;13.52;100.00;101334.56;5318750;28;20038;-69
2023/08/08 01:10:58;;;;;;;8.50;3.10;;;;;;;13.57;100.00;101326.13;5320898;28;20027;-69
2023/08/08 01:13:31;;;;;;;5.43;2.92;;;;;;;13.66;100.00;101329.91;5319059;28;21026;-68
2023/08/08 01:16:04;;;;;;;6.30;2.90;;;;;;;13.60;100.00;101319.69;5306175;28;20635;-68
2023/08/08 01:18:38;;;;;;;8.98;3.08;;;;;;;13.60;100.00;101317.84;5318956;28;20015;-68
2023/08/08 01:21:10;;;;;;;7.23;2.87;;;;;;;13.66;100.00;101319.16;5312381;28;20094;-69
2023/08/08 01:23:56;;;;;;;7.28;3.15;;;;;;;13.72;100.00;101305.25;5314481;28;20032;-68
2023/08/08 01:26:28;;;;;;;7.65;3.20;;;;;;;13.80;100.00;101307.28;5318246;28;20415;-69
2023/08/08 01:28:59;;;;;;;7.53;3.13;;;;;;;13.77;100.00;101302.16;5305972;28;20480;-69
2023/08/08 01:31:31;;;;;;;9.45;3.28;;;;;;;13.76;100.00;101313.91;5320062;28;20032;-69
2023/08/08 01:34:02;;;;;;;7.70;2.92;;;;;;;13.75;100.00;101315.72;5318761;28;20020;-69
2023/08/08 01:37:05;;;;;;;5.95;2.90;;;;;;;13.84;100.00;101317.63;5310812;28;20381;-69
2023/08/08 01:39:38;;;;;;;8.23;3.58;;;;;;;13.80;100.00;101318.03;5310794;28;20023;-69
2023/08/08 01:42:11;;;;;;;6.53;3.30;;;;;;;13.86;100.00;101313.00;5319347;28;20025;-69
2023/08/08 01:44:42;;;;;;;8.73;3.10;;;;;;;13.84;100.00;101312.25;5315140;28;20102;-69
2023/08/08 01:47:14;;;;;;;8.40;3.28;;;;;;;13.92;100.00;101312.50;5321108;28;20480;-69
2023/08/08 01:49:46;;;;;;;8.82;3.55;;;;;;;13.87;100.00;101311.19;5318379;28;20024;-69
2023/08/08 01:52:18;;;;;;;8.25;3.20;;;;;;;13.85;100.00;101308.63;5318750;28;20485;-69
2023/08/08 01:54:49;;;;;;;6.00;2.70;;;;;;;13.84;100.00;101306.91;5315367;28;20022;-69
2023/08/08 01:57:22;;;;;;;9.32;3.83;;;;;;;14.04;100.00;101299.03;5302304;28;20024;-69
2023/08/08 01:59:53;;;;;;;7.68;3.08;;;;;;;13.85;100.00;101292.53;5306722;28;20084;-69
2023/08/08 02:02:25;;;;;;;10.40;3.70;;;;;;;13.84;100.00;101281.91;5318974;28;20489;-69
2023/08/08 02:04:56;;;;;;;7.35;3.22;;;;;;;13.82;100.00;101281.19;5319048;28;20011;-69
2023/08/08 02:07:27;;;;;;;8.52;3.05;;;;;;;13.80;100.00;101291.19;5313463;28;20028;-69
2023/08/08 02:09:58;;;;;;;7.32;3.50;;;;;;;13.73;100.00;101290.88;5317644;28;20504;-69
2023/08/08 02:12:30;;;;;;;8.13;3.33;;;;;;;13.68;100.00;101280.50;5308560;28;20031;-69
2023/08/08 02:15:02;;;;;;;7.65;2.85;;;;;;;13.83;100.00;101282.91;5318962;28;20027;-68
2023/08/08 02:17:33;;;;;;;7.78;3.65;;;;;;;13.66;100.00;101289.66;5308058;28;20028;-69
2023/08/08 02:20:06;;;;;;;7.68;3.28;;;;;;;13.66;100.00;101285.16;5314118;28;20598;-69
2023/08/08 02:22:37;;;;;;;8.70;3.38;;;;;;;13.74;100.00;101289.88;5314545;28;20023;-69
2023/08/08 02:25:09;;;;;;;10.23;3.70;;;;;;;13.72;100.00;101281.94;5311847;28;20058;-69
2023/08/08 02:27:40;;;;;;;9.38;3.60;;;;;;;13.69;100.00;101284.03;5300331;28;20790;-69
2023/08/08 02:30:12;;;;;;;8.32;3.20;;;;;;;13.64;100.00;101286.28;5320858;28;20100;-69
2023/08/08 02:32:43;;;;;;;7.72;3.55;;;;;;;13.58;100.00;101278.75;5313256;28;20481;-69
2023/08/08 02:35:15;;;;;;;8.93;3.70;;;;;;;13.61;100.00;101276.63;5317656;28;20024;-69
2023/08/08 02:37:46;;;;;;;9.50;3.60;;;;;;;13.57;100.00;101267.13;5318745;28;20019;-69
2023/08/08 02:40:18;;;;;;;7.05;3.58;;;;;;;13.66;100.00;101270.91;5316563;28;20042;-69
2023/08/08 02:42:49;;;;;;;11.05;3.67;;;;;;;13.59;100.00;101272.38;5315935;28;20027;-69
2023/08/08 02:45:21;;;;;;;7.13;3.50;;;;;;;13.69;100.00;101263.47;5324381;27;20054;-69
2023/08/08 02:47:52;;;;;;;10.00;3.58;;;;;;;13.58;100.00;101260.81;5312860;28;20023;-69
2023/08/08 02:50:24;;;;;;;11.02;4.25;;;;;;;13.61;100.00;101263.22;5312965;28;20032;-69
2023/08/08 02:52:57;;;;;;;11.85;4.25;;;;;;;13.70;100.00;101262.47;5311584;28;20166;-69
2023/08/08 02:55:28;;;;;;;9.02;4.35;;;;;;;13.66;100.00;101252.13;5330175;27;20038;-70
2023/08/08 02:57:59;;;;;;;11.30;4.20;;;;;;;13.68;100.00;101247.50;5317433;28;20374;-69
2023/08/08 03:00:31;;;;;;;10.48;4.00;;;;;;;13.71;100.00;101255.25;5316989;28;20032;-68
2023/08/08 03:03:02;;;;;;;8.77;4.15;;;;;;;13.62;100.00;101254.22;5316948;28;20035;-69
2023/08/08 03:05:34;;;;;;;10.95;4.20;;;;;;;13.62;100.00;101250.69;5316854;28;20356;-69
2023/08/08 03:08:05;;;;;;;11.57;4.53;;;;;;;13.57;100.00;101260.94;5299751;28;20020;-69
2023/08/08 03:10:37;;;;;;;11.60;4.75;;;;;;;13.50;100.00;101258.75;5315141;28;20106;-69
2023/08/08 03:13:08;;;;;;;9.85;4.70;;;;;;;13.51;100.00;101260.44;5309928;28;20076;-69
2023/08/08 03:15:40;;;;;;;11.00;4.68;;;;;;;13.52;100.00;101264.84;5314652;28;20023;-69
2023/08/08 03:18:11;;;;;;;9.25;4.38;;;;;;;13.56;100.00;101267.25;5307920;28;20028;-68
2023/08/08 03:20:43;;;;;;;11.50;4.78;;;;;;;13.50;100.00;101261.44;5310057;28;20116;-69
2023/08/08 03:23:14;;;;;;;13.00;5.10;;;;;;;13.55;100.00;101266.41;5313528;28;20028;-69
2023/08/08 03:25:45;;;;;;;11.95;4.88;;;;;;;13.61;100.00;101257.84;5318912;28;20024;-69
2023/08/08 03:28:17;;;;;;;13.77;4.90;;;;;;;13.64;100.00;101252.25;5316962;28;20114;-69
2023/08/08 03:30:48;;;;;;;10.82;4.93;;;;;;;13.55;100.00;101254.84;5315458;28;20035;-68
2023/08/08 03:33:20;;;;;;;9.23;4.65;;;;;;;13.60;100.00;101248.13;5318369;28;20038;-69
2023/08/08 03:35:51;;;;;;;10.70;4.40;;;;;;;13.61;100.00;101247.13;5316479;28;20047;-69
2023/08/08 03:38:22;;;;;;;11.70;4.70;;;;;;;13.60;100.00;101250.81;5310307;28;20024;-69
2023/08/08 03:40:53;;;;;;;12.07;5.30;;;;;;;13.63;100.00;101255.91;5311085;28;20032;-69
2023/08/08 03:43:25;;;;;;;11.48;5.15;;;;;;;13.65;100.00;101256.66;5312425;28;20106;-69
2023/08/08 03:45:56;;;;;;;12.10;5.22;;;;;;;13.60;100.00;101250.81;5317804;28;20031;-69
2023/08/08 03:48:28;;;;;;;13.93;4.80;;;;;;;13.68;100.00;101252.84;5314542;28;20039;-69
2023/08/08 03:50:59;;;;;;;13.50;5.15;;;;;;;13.64;100.00;101251.41;5309836;28;20031;-69
2023/08/08 03:53:30;;;;;;;9.98;5.18;;;;;;;13.67;100.00;101249.31;5311727;28;20031;-68
2023/08/08 03:56:02;;;;;;;10.98;5.28;;;;;;;13.58;100.00;101243.88;5317333;28;20550;-69
2023/08/08 03:58:33;;;;;;;13.52;5.15;;;;;;;13.47;100.00;101244.75;5319404;28;20073;-69
2023/08/08 04:01:05;;;;;;;14.20;5.38;;;;;;;13.44;100.00;101253.03;5311806;28;20541;-68
2023/08/08 04:03:37;;;;;;;14.57;5.75;;;;;;;13.39;100.00;101252.59;5309601;28;20134;-68
2023/08/08 04:06:08;;;;;;;13.07;5.35;;;;;;;13.39;100.00;101245.38;5316981;28;20059;-70
2023/08/08 04:08:39;;;;;;;16.80;6.38;;;;;;;13.39;100.00;101247.22;5322925;28;20044;-69
2023/08/08 04:11:11;;;;;;;13.00;5.78;;;;;;;13.30;100.00;101240.78;5311762;28;20037;-69
2023/08/08 04:13:42;;;;;;;13.18;4.75;;;;;;;13.26;100.00;101241.97;5313495;28;20107;-69
2023/08/08 04:16:14;;;;;;;11.70;5.05;;;;;;;13.24;100.00;101249.28;5315675;28;20073;-69
2023/08/08 04:18:45;;;;;;;14.93;5.43;;;;;;;13.23;100.00;101248.44;5320369;28;20030;-68
2023/08/08 04:21:17;;;;;;;12.15;5.93;;;;;;;13.19;100.00;101248.81;5316224;28;20024;-69
2023/08/08 04:23:48;;;;;;;13.27;5.90;;;;;;;13.17;100.00;101248.91;5318233;28;20039;-69
2023/08/08 04:26:19;;;;;;;15.20;5.60;;;;;;;13.11;100.00;101242.22;5313660;28;20024;-69
2023/08/08 04:28:51;;;;;;;14.52;6.00;;;;;;;13.08;100.00;101244.34;5318343;28;20023;-69
2023/08/08 04:31:25;;;;;;;14.88;5.85;;;;;;;13.07;100.00;101247.97;5310391;28;20118;-69
2023/08/08 04:33:59;;;;;;;16.42;5.97;;;;;;;13.14;100.00;101244.66;5314652;28;20038;-68
2023/08/08 04:36:31;;;;;;;13.43;6.00;;;;;;;13.09;100.00;101238.81;5314983;28;20563;-69
2023/08/08 04:39:02;;;;;;;14.90;6.38;;;;;;;13.13;100.00;101237.63;5315643;28;20401;-69
2023/08/08 04:41:34;;;;;;;14.40;5.78;;;;;;;13.08;100.00;101250.53;5318915;28;20036;-69
2023/08/08 04:44:05;;;;;;;17.92;7.68;;;;;;;13.12;100.00;101245.78;5314358;28;20081;-69
2023/08/08 04:46:36;;;;;;;13.63;6.25;;;;;;;13.13;100.00;101253.69;5316980;28;20101;-69
2023/08/08 04:49:08;;;;;;;16.40;6.40;;;;;;;13.08;100.00;101255.88;5313990;28;20607;-69
2023/08/08 04:51:39;;;;;;;14.40;6.30;;;;;;;13.07;100.00;101250.66;5316494;28;20024;-69
2023/08/08 04:54:10;;;;;;;13.57;6.50;;;;;;;13.04;100.00;101257.13;5314422;28;20047;-69
2023/08/08 04:56:42;;;;;;;15.40;5.88;;;;;;;13.07;100.00;101251.50;5320966;28;20479;-68
2023/08/08 04:59:13;;;;;;;14.73;6.07;;;;;;;13.05;100.00;101255.28;5306954;28;20016;-69
2023/08/08 05:01:44;;;;;;;15.15;5.97;;;;;;;13.03;100.00;101243.84;5315391;28;20106;-69
2023/08/08 05:04:17;;;;;;;13.43;6.03;;;;;;;13.05;100.00;101248.09;5320620;28;20522;-69
2023/08/08 05:06:49;;;;;;;13.75;6.13;;;;;;;12.99;100.00;101245.91;5310317;28;20020;-69
2023/08/08 05:09:20;;;;;;;16.13;6.40;;;;;;;12.97;100.00;101255.91;5320615;27;20399;-69
2023/08/08 05:11:55;;;;;;;15.75;6.63;;;;;;;12.95;100.00;101245.31;5312928;28;20020;-69
2023/08/08 05:14:26;;;;;;;15.48;6.40;;;;;;;12.94;100.00;101256.13;5318204;28;20023;-69
2023/08/08 05:16:57;;;;;;;14.90;6.85;;;;;;;12.94;100.00;101250.78;5309173;28;20040;-68
2023/08/08 05:19:29;;;;;;;13.27;6.22;;;;;;;12.92;100.00;101250.03;5312365;28;20393;-68
2023/08/08 05:22:00;;;;;;;16.58;7.22;;;;;;;12.95;100.00;101245.31;5310713;28;20055;-69
2023/08/08 05:24:32;;;;;;;20.48;7.13;;;;;;;12.97;100.00;101238.97;5312963;28;20546;-69
2023/08/08 05:27:03;;;;;;;16.98;6.63;;;;;;;13.08;100.00;101250.53;5314206;28;20058;-68
2023/08/08 05:29:37;;;;;;;16.23;7.43;;;;;;;13.01;100.00;101248.47;5312189;28;20028;-69
2023/08/08 05:32:09;;;;;;;;;;;;;;;13.14;100.00;101250.03;5309324;28;20032;-68
2023/08/08 05:34:40;;;;;;;18.13;6.53;;;;;;;13.06;100.00;101252.47;5306122;28;19912;-69
2023/08/08 05:37:11;;;;;;;11.80;6.60;;;;;;;13.07;100.00;101256.84;5321185;28;20767;-68
2023/08/08 05:39:44;;;;;;;18.15;6.95;;;;;;;13.13;100.00;101259.06;5316915;28;20065;-68
2023/08/08 05:42:15;;;;;;;14.48;6.45;;;;;;;13.16;100.00;101255.28;5317219;28;20031;-68
2023/08/08 05:44:46;;;;;;;15.80;6.70;;;;;;;13.21;100.00;101262.91;5317064;28;20051;-69
2023/08/08 05:47:18;;;;;;;14.02;6.20;;;;;;;13.26;100.00;101266.09;5316680;28;20128;-68
2023/08/08 05:49:49;;;;;;;17.25;6.45;;;;;;;13.34;100.00;101258.31;5314920;28;20030;-68
2023/08/08 05:52:21;;;;;;;13.23;6.70;;;;;;;13.38;100.00;101267.78;5317959;28;20035;-68
2023/08/08 05:54:53;;;;;;;15.13;6.70;;;;;;;13.39;100.00;101261.47;5316278;28;20026;-68
2023/08/08 05:57:25;;;;;;;13.13;6.10;;;;;;;13.48;100.00;101262.53;5312266;28;20016;-68
2023/08/08 05:59:56;;;;;;;14.48;6.40;;;;;;;13.57;100.00;101259.09;5320482;28;20029;-68
2023/08/08 06:02:28;;;;;;;18.50;7.32;;;;;;;13.53;100.00;101261.16;5317458;28;20028;-70
2023/08/08 06:04:59;;;;;;;16.13;6.47;;;;;;;13.61;100.00;101259.69;5316218;28;20036;-69
2023/08/08 06:07:30;;;;;;;16.33;6.38;;;;;;;13.66;100.00;101265.53;5318349;28;20412;-69
2023/08/08 06:10:02;;;;;;;15.57;7.22;;;;;;;13.68;100.00;101263.56;5317435;28;20051;-70
2023/08/08 06:12:34;;;;;;;14.45;6.32;;;;;;;13.71;100.00;101261.50;5308866;28;20024;-69
2023/08/08 06:15:06;;;;;;;12.50;6.30;;;;;;;13.80;100.00;101267.06;5319251;28;20050;-69
2023/08/08 06:17:37;;;;;;;14.13;6.45;;;;;;;13.86;100.00;101262.03;5314518;28;20487;-69
2023/08/08 06:20:09;;;;;;;13.48;5.97;;;;;;;13.94;100.00;101266.78;5318833;28;20034;-69
2023/08/08 06:22:41;;;;;;;10.90;6.45;;;;;;;13.99;100.00;101263.69;5318023;28;20032;-69
2023/08/08 06:25:13;;;;;;;14.15;6.07;;;;;;;14.05;100.00;101268.53;5320225;28;20100;-69
2023/08/08 06:27:44;;;;;;;12.35;6.25;;;;;;;14.07;100.00;101271.94;5318146;28;20111;-69
2023/08/08 06:30:16;;;;;;;13.63;6.30;;;;;;;14.08;100.00;101268.28;5311053;28;20064;-69
2023/08/08 06:32:47;;;;;;;14.80;6.05;;;;;;;14.13;100.00;101279.47;5302790;28;20102;-69
2023/08/08 06:35:19;;;;;;;13.80;6.80;;;;;;;14.15;100.00;101274.81;5319881;28;20038;-69
2023/08/08 06:37:50;;;;;;;14.35;6.70;;;;;;;14.20;100.00;101269.91;5312806;28;20055;-69
2023/08/08 06:40:21;;;;;;;14.75;5.70;;;;;;;14.26;100.00;101271.22;5307387;28;20036;-69
2023/08/08 06:42:53;;;;;;;16.17;5.97;;;;;;;14.29;100.00;101274.50;5319210;28;20404;-69
2023/08/08 06:45:24;;;;;;;14.95;7.07;;;;;;;14.36;100.00;101269.44;5317186;28;20442;-69
2023/08/08 06:47:56;;;;;;;14.90;6.60;;;;;;;14.42;100.00;101268.94;5315835;28;20023;-69
2023/08/08 06:50:27;;;;;;;13.07;6.20;;;;;;;14.48;100.00;101264.88;5317943;28;21249;-69
2023/08/08 06:52:58;;;;;;;13.75;5.90;;;;;;;14.56;100.00;101269.59;5319945;28;20063;-69
2023/08/08 06:55:29;;;;;;;14.27;6.38;;;;;;;14.63;100.00;101268.97;5319363;28;20023;-69
2023/08/08 06:58:01;;;;;;;12.77;6.35;;;;;;;14.73;100.00;101263.63;5312758;28;20012;-69
2023/08/08 07:00:32;;;;;;;14.30;5.70;;;;;;;14.80;100.00;101269.31;5312184;28;20102;-69
2023/08/08 07:03:04;;;;;;;13.88;5.28;;;;;;;14.83;100.00;101267.19;5310844;28;20032;-69
2023/08/08 07:05:37;;;;;;;15.02;5.65;;;;;;;14.90;100.00;101267.53;5311113;28;20051;-69
2023/08/08 07:08:08;;;;;;;12.60;5.38;;;;;;;14.97;100.00;101268.66;5304920;28;20138;-69
2023/08/08 07:10:40;;;;;;;10.65;5.55;;;;;;;15.07;100.00;101272.25;5311654;28;20541;-69
2023/08/08 07:13:11;;;;;;;14.88;5.43;;;;;;;15.13;100.00;101267.28;5311897;28;20020;-69
2023/08/08 07:15:43;;;;;;;14.13;6.10;;;;;;;15.18;100.00;101268.59;5311407;28;20036;-69
2023/08/08 07:18:14;;;;;;;9.77;5.07;;;;;;;15.26;100.00;101263.41;5303565;28;20023;-69
2023/08/08 07:20:45;;;;;;;12.05;4.80;;;;;;;15.39;100.00;101263.13;5314209;28;20487;-69
2023/08/08 07:23:17;;;;;;;11.65;5.07;;;;;;;15.52;100.00;101256.66;5309699;28;20019;-69
2023/08/08 07:25:48;;;;;;;10.10;4.80;;;;;;;15.58;100.00;101266.84;5316607;28;20030;-69
2023/08/08 07:28:19;;;;;;;17.10;5.28;;;;;;;15.67;100.00;101256.09;5308840;28;20070;-69
2023/08/08 07:30:51;;;;;;;16.73;5.22;;;;;;;15.80;100.00;101260.38;5311848;28;20032;-69
2023/08/08 07:33:22;;;;;;;13.25;4.90;;;;;;;15.84;100.00;101256.44;5310067;28;20081;-70
2023/08/08 07:35:53;;;;;;;11.10;4.60;;;;;;;15.93;100.00;101260.94;5311250;28;20409;-70
2023/08/08 07:38:25;;;;;;;9.80;4.28;;;;;;;16.05;100.00;101265.19;5307264;28;20015;-70
2023/08/08 07:40:56;;;;;;;7.88;4.00;;;;;;;16.16;100.00;101256.09;5302101;28;20055;-70
2023/08/08 07:43:27;;;;;;;8.75;4.00;;;;;;;16.30;100.00;101256.63;5306497;28;20038;-70
2023/08/08 07:45:59;;;;;;;10.10;3.75;;;;;;;16.37;100.00;101247.00;5312958;28;20482;-69
2023/08/08 07:48:31;;;;;;;8.65;3.80;;;;;;;16.39;100.00;101239.63;5313549;28;20532;-70
2023/08/08 07:51:03;;;;;;;8.30;3.20;;;;;;;16.43;100.00;101251.78;5317413;28;20393;-70
2023/08/08 07:53:34;;;;;;;8.40;3.38;;;;;;;16.42;100.00;101250.09;5315839;28;20039;-69
2023/08/08 07:56:05;;;;;;;7.82;3.60;;;;;;;16.46;100.00;101251.50;5317544;28;20019;-69
2023/08/08 07:58:37;;;;;;;8.50;3.30;;;;;;;16.59;100.00;101252.03;5309871;28;20028;-69
2023/08/08 08:01:08;;;;;;;10.27;3.92;;;;;;;16.65;100.00;101258.69;5309182;27;20076;-70
2023/08/08 08:03:40;;;;;;;10.63;3.50;;;;;;;16.66;100.00;101260.38;5313956;28;20040;-70
2023/08/08 08:06:11;;;;;;;11.85;4.05;;;;;;;16.73;100.00;101257.94;5321424;28;20031;-70
2023/08/08 08:08:43;;;;;;;9.35;3.72;;;;;;;16.75;100.00;101264.88;5319645;28;20032;-70
2023/08/08 08:11:16;;;;;;;8.57;3.60;;;;;;;16.74;100.00;101256.94;5312457;28;20031;-70
2023/08/08 08:13:47;;;;;;;7.25;3.28;;;;;;;16.76;100.00;101247.72;5320921;28;20053;-69
2023/08/08 08:16:19;;;;;;;11.63;3.80;;;;;;;16.78;100.00;101255.66;5313723;28;20028;-71
2023/08/08 08:18:50;;;;;;;9.77;3.97;;;;;;;16.83;100.00;101250.69;5320356;28;20440;-70
2023/08/08 08:21:21;;;;;;;11.63;3.53;;;;;;;16.96;100.00;101253.91;5316901;28;20115;-70
2023/08/08 08:23:53;;;;;;;8.52;3.40;;;;;;;17.07;100.00;101246.59;5320826;28;20027;-70
2023/08/08 08:26:24;;;;;;;9.10;3.72;;;;;;;17.19;100.00;101248.97;5319937;28;20023;-70
2023/08/08 08:28:55;;;;;;;7.40;3.45;;;;;;;17.23;100.00;101254.91;5323291;28;20024;-70
2023/08/08 08:31:27;;;;;;;10.60;3.70;;;;;;;17.32;100.00;101255.84;5319932;28;20032;-70
2023/08/08 08:33:58;;;;;;;9.90;3.80;;;;;;;17.24;100.00;101245.81;5319532;28;20362;-70
2023/08/08 08:36:29;;;;;;;9.02;3.38;;;;;;;17.22;100.00;101247.81;5319519;28;20495;-70
2023/08/08 08:39:01;;;;;;;9.35;4.00;;;;;;;17.22;100.00;101237.88;5320575;28;20106;-70
2023/08/08 08:41:35;;;;;;;8.13;3.10;;;;;;;17.21;100.00;101244.25;5319344;28;20355;-70
2023/08/08 08:44:07;;;;;;;8.13;3.13;;;;;;;17.23;100.00;101249.50;5317906;28;20019;-70
2023/08/08 08:46:40;;;;;;;8.25;3.03;;;;;;;17.31;100.00;101246.06;5319032;28;20032;-70
2023/08/08 08:49:12;;;;;;;10.73;3.58;;;;;;;17.32;100.00;101245.06;5320692;28;20027;-70
2023/08/08 08:51:43;;;;;;;6.47;2.97;;;;;;;17.33;100.00;101254.84;5317551;28;20049;-70
2023/08/08 08:54:15;;;;;;;8.80;2.70;;;;;;;17.37;100.00;101245.44;5312594;28;20035;-70
2023/08/08 08:56:47;;;;;;;9.07;2.90;;;;;;;17.45;100.00;101242.84;5316670;28;20023;-70
2023/08/08 08:59:18;;;;;;;7.18;2.50;;;;;;;17.47;100.00;101242.69;5302144;28;20032;-70
2023/08/08 09:01:50;;;;;;;6.18;2.15;;;;;;;17.44;100.00;101247.38;5313324;28;20420;-70
2023/08/08 09:04:23;;;;;;;7.38;2.53;;;;;;;17.41;100.00;101263.00;5310014;28;20032;-70
2023/08/08 09:06:55;;;;;;;4.25;1.83;;;;;;;17.42;100.00;101257.47;5304588;28;20141;-70
2023/08/08 09:09:30;;;;;;;5.40;2.25;;;;;;;17.40;100.00;101255.94;5315985;28;20470;-69
2023/08/08 09:12:04;;;;;;;5.60;2.22;;;;;;;17.45;100.00;101248.25;5304359;28;20027;-70
2023/08/08 09:14:39;;;;;;;;;;;;;;;17.61;100.00;101259.19;5314709;28;20122;-70
2023/08/08 09:17:12;;;;;;;7.10;2.20;;;;;;;17.51;100.00;101258.41;5321628;27;19970;-70
2023/08/08 09:19:45;;;;;;;5.93;2.03;;;;;;;17.53;100.00;101255.59;5312914;28;20304;-70
2023/08/08 09:22:16;;;;;;;6.63;1.90;;;;;;;17.55;100.00;101253.56;5308072;28;20031;-70
2023/08/08 09:24:47;;;;;;;6.05;2.10;;;;;;;17.52;100.00;101252.00;5317078;28;20023;-70
2023/08/08 09:27:19;;;;;;;5.32;2.28;;;;;;;17.50;100.00;101255.88;5306617;28;20424;-70
2023/08/08 09:29:50;;;;;;;6.25;2.30;;;;;;;17.53;100.00;101256.41;5317761;28;20016;-70
2023/08/08 09:32:22;;;;;;;8.00;2.47;;;;;;;17.53;100.00;101256.41;5311608;28;20062;-70
2023/08/08 09:34:53;;;;;;;5.78;2.17;;;;;;;17.60;100.00;101248.53;5313870;28;20031;-70
2023/08/08 09:37:26;;;;;;;7.40;2.70;;;;;;;17.66;100.00;101256.06;5319885;28;20032;-70
2023/08/08 09:39:58;;;;;;;8.82;2.90;;;;;;;17.76;100.00;101259.50;5318813;28;20100;-71
2023/08/08 09:42:29;;;;;;;8.75;3.28;;;;;;;17.86;100.00;101254.06;5317233;28;20519;-70
2023/08/08 09:45:01;;;;;;;8.25;3.13;;;;;;;17.91;100.00;101253.59;5309993;28;20031;-70
2023/08/08 09:47:33;;;;;;;8.65;3.33;;;;;;;17.91;100.00;101258.97;5310501;28;20015;-71
2023/08/08 09:50:05;;;;;;;8.88;3.38;;;;;;;17.95;100.00;101254.97;5318044;28;20043;-70
2023/08/08 09:52:39;;;;;;;8.95;3.22;;;;;;;17.91;100.00;101261.69;5320183;28;20058;-70
2023/08/08 09:55:12;;;;;;;6.68;3.15;;;;;;;17.95;100.00;101260.38;5316484;28;20024;-70
2023/08/08 09:57:44;;;;;;;6.80;2.60;;;;;;;17.96;100.00;101253.97;5319631;28;20477;-70
2023/08/08 10:00:16;;;;;;;7.10;2.65;;;;;;;17.95;100.00;101255.84;5318174;28;20040;-70
2023/08/08 10:02:47;;;;;;;7.75;2.80;;;;;;;18.02;100.00;101259.63;5320030;28;20386;-71
2023/08/08 10:05:19;;;;;;;5.97;2.70;;;;;;;18.09;100.00;101259.00;5319370;28;20068;-70
2023/08/08 10:07:50;;;;;;;6.35;2.30;;;;;;;18.09;100.00;101262.53;5317368;28;20492;-70
2023/08/08 10:10:22;;;;;;;7.55;2.13;;;;;;;18.16;100.00;101251.94;5313374;28;20062;-71
2023/08/08 10:12:53;;;;;;;5.35;2.05;;;;;;;18.22;100.00;101251.31;5311558;28;20112;-71
2023/08/08 10:15:27;;;;;;;4.75;1.98;;;;;;;18.28;100.00;101257.94;5313540;28;20027;-70
2023/08/08 10:18:00;;;;;;;3.83;1.65;;;;;;;18.40;100.00;101248.56;5315604;28;20020;-70
2023/08/08 10:20:34;;;;;;;5.72;2.05;;;;;;;18.56;100.00;101250.50;5300735;28;20024;-70
2023/08/08 10:23:07;;;;;;;5.03;1.88;;;;;;;18.68;100.00;101251.97;5316410;28;20419;-70
2023/08/08 10:25:44;;;;;;;6.33;2.17;;;;;;;18.85;100.00;101249.34;5306012;28;20027;-71
2023/08/08 10:28:19;;;;;;;5.97;2.28;;;;;;;18.77;100.00;101250.13;5318469;28;20285;-70
2023/08/08 10:30:58;;;;;;;5.10;1.80;;;;;;;18.78;100.00;101247.25;5315491;28;20007;-70
2023/08/08 10:33:40;;;;;;;4.03;1.67;;;;;;;18.84;100.00;101253.91;5308989;28;20043;-70
2023/08/08 10:36:13;;;;;;;4.05;1.98;;;;;;;18.82;100.00;101255.09;5307795;28;20477;-70
2023/08/08 10:38:49;;;;;;;4.63;1.60;;;;;;;18.84;100.00;101256.63;5308722;28;20364;-70
2023/08/08 10:41:21;;;;;;;4.53;2.10;;;;;;;18.77;100.00;101258.22;5308925;28;20507;-71
2023/08/08 10:43:56;;;;;;;4.43;1.80;;;;;;;18.56;100.00;101258.63;5308824;28;20027;-70
2023/08/08 10:46:29;;;;;;;4.25;1.55;;;;;;;18.41;100.00;101258.38;5312116;28;20420;-70
2023/08/08 10:49:02;;;;;;;5.10;1.50;;;;;;;18.25;100.00;101266.34;5319943;27;20057;-70
2023/08/08 10:51:42;;;;;;;4.90;1.73;;;;;;;18.00;100.00;101267.00;5307215;28;20020;-70
2023/08/08 10:54:29;;;;;;;4.25;1.55;;;;;;;17.94;100.00;101258.69;5316320;28;20019;-70
2023/08/08 10:57:00;;;;;;;4.82;1.63;;;;;;;17.81;100.00;101257.22;5314879;28;20035;-70
2023/08/08 10:59:38;;;;;;;5.32;1.67;;;;;;;17.85;100.00;101248.81;5305616;28;20074;-70
2023/08/08 11:02:10;;;;;;;5.47;2.10;;;;;;;17.91;100.00;101256.28;5314542;28;20020;-70
2023/08/08 11:04:41;;;;;;;4.55;1.90;;;;;;;17.99;100.00;101254.50;5319599;28;20038;-70
2023/08/08 11:07:14;;;;;;;5.45;1.92;;;;;;;18.14;100.00;101241.31;5317028;28;20019;-70
2023/08/08 11:09:46;;;;;;;5.10;2.10;;;;;;;18.32;100.00;101230.44;5315826;28;20565;-70
2023/08/08 11:12:17;;;;;;;4.80;2.00;;;;;;;18.50;100.00;101237.66;5308586;28;20023;-70
2023/08/08 11:14:48;;;;;;;4.97;1.98;;;;;;;18.60;100.00;101241.94;5308258;28;20521;-69
2023/08/08 11:17:20;;;;;;;5.82;1.73;;;;;;;18.75;100.00;101230.53;5316139;28;20027;-70
2023/08/08 11:19:51;;;;;;;5.07;1.40;;;;;;;18.91;100.00;101224.38;5316247;28;20796;-69
2023/08/08 11:22:23;;;;;;;4.18;1.58;;;;;;;19.11;100.00;101224.97;5315468;28;20031;-70
2023/08/08 11:24:57;;;;;;;6.68;2.05;;;;;;;19.24;100.00;101228.03;5318982;28;20023;-70
2023/08/08 11:27:28;;;;;;;;;;;;;;;19.43;100.00;101223.38;5317866;28;20050;-70
2023/08/08 11:29:59;;;;;;;3.78;1.52;;;;;;;19.23;100.00;101233.63;5315672;28;19915;-70
2023/08/08 11:32:31;;;;;;;5.28;1.73;;;;;;;19.22;100.00;101221.13;5316045;28;20468;-70
2023/08/08 11:35:02;;;;;;;5.75;1.83;;;;;;;19.18;100.00;101226.00;5312019;28;20051;-70
2023/08/08 11:37:34;;;;;;;4.25;1.83;;;;;;;19.10;100.00;101228.66;5301923;28;20024;-70